Portada
METAR-TAF:

METAR-TAF

Aeropuertos :

Soldotna, Alaska, Estados Unidos

latitud: 60-29N, longitud: 151-02W, altitud: 33 m

Observación

El informe se hizo hace 53 minutos, a las 17:56 UTC
Viento calma
Temperatura 12°C
Humedad 100%
Presión 1010 hPa
Visibilidad: 16.1 km
Escasas nubes a una altura de 300 ft

METAR: PASX 151756Z AUTO 00000KT 10SM FEW003 12/12 A2983 RMK AO2 RAE11 SLP107 P0001 60003 T01220117 10122 20100 51008

Hora: 10:49 (18:49 UTC)


TAF: falta

Observaciones y pronósticos meteorológicos de más de 4000 aeropuertos (mensajes METAR y TAF).

Los puntos amarillos y rojos representan las estaciones disponibles.

Ponga el ratón en el punto deseado para ver el nombre de la estación.

Haga clic para ver las observaciones y los pronósticos meteorológicos.

Para cambiar el mapa : haga clic en los botones verdes con una cruz de color negro para hacer un zoom, en el botón verde con un guión para alejar o en las flechas verdes para mapas adyacentes.


METAR-TAF: